Terminal Aerodrome Forecast
Issued by NWS

Home | Current Version | Previous Version | Text Only | Print | Product List | Glossary On
Versions: 1 2 3 4 5 6 7 8 9 10 11 12 13 14 15 16 17 18 19 20 21 22 23 24 25 26 27 28
805
FTUS44 KOUN 250520
TAFWWR
TAF
KWWR 250520Z 2506/2606 35020KT 6SM -SHRA BKN015 OVC050
      TEMPO 2506/2509 4SM -SHRA SCT007 OVC020
     FM250900 35020KT 5SM -RA OVC007
     FM251400 33017G24KT P6SM SCT030=

USA.gov is the U.S. government's official web portal to all federal, state and local government web resources and services.